sensor_id;sensor_type;location;lat;lon;timestamp;P1;durP1;ratioP1;P2;durP2;ratioP2
61473;SDS011;53694;49.784;30.150;2022-08-01T00:00:09;5.67;;;2.76;;
61473;SDS011;53694;49.784;30.150;2022-08-01T00:01:13;6.54;;;2.74;;
61473;SDS011;53694;49.784;30.150;2022-08-01T00:02:15;6.37;;;2.57;;
61473;SDS011;53694;49.784;30.150;2022-08-01T00:03:17;7.43;;;2.74;;
61473;SDS011;53694;49.784;30.150;2022-08-01T00:04:18;8.31;;;2.91;;
61473;SDS011;53694;49.784;30.150;2022-08-01T00:05:20;5.61;;;2.82;;
61473;SDS011;53694;49.784;30.150;2022-08-01T00:06:22;6.39;;;3.27;;
61473;SDS011;53694;49.784;30.150;2022-08-01T00:07:24;9.18;;;2.84;;
61473;SDS011;53694;49.784;30.150;2022-08-01T00:08:25;4.97;;;2.83;;
61473;SDS011;53694;49.784;30.150;2022-08-01T00:09:27;5.56;;;2.67;;
61473;SDS011;53694;49.784;30.150;2022-08-01T00:10:31;5.34;;;2.57;;
61473;SDS011;53694;49.784;30.150;2022-08-01T00:11:32;7.81;;;2.54;;
61473;SDS011;53694;49.784;30.150;2022-08-01T00:12:34;7.89;;;2.57;;
61473;SDS011;53694;49.784;30.150;2022-08-01T00:13:36;8.77;;;3.05;;
61473;SDS011;53694;49.784;30.150;2022-08-01T00:14:38;7.39;;;2.96;;
61473;SDS011;53694;49.784;30.150;2022-08-01T00:15:39;8.92;;;2.55;;
61473;SDS011;53694;49.784;30.150;2022-08-01T00:16:41;5.56;;;2.75;;
61473;SDS011;53694;49.784;30.150;2022-08-01T00:17:43;5.09;;;2.57;;
61473;SDS011;53694;49.784;30.150;2022-08-01T00:18:45;5.81;;;2.76;;
61473;SDS011;53694;49.784;30.150;2022-08-01T00:19:47;7.09;;;2.90;;
61473;SDS011;53694;49.784;30.150;2022-08-01T00:20:58;8.67;;;2.91;;
61473;SDS011;53694;49.784;30.150;2022-08-01T00:22:00;5.59;;;2.73;;
61473;SDS011;53694;49.784;30.150;2022-08-01T00:23:02;7.01;;;2.85;;
61473;SDS011;53694;49.784;30.150;2022-08-01T00:24:04;5.59;;;2.85;;
61473;SDS011;53694;49.784;30.150;2022-08-01T00:25:06;9.24;;;3.10;;
61473;SDS011;53694;49.784;30.150;2022-08-01T00:26:10;6.35;;;3.26;;
61473;SDS011;53694;49.784;30.150;2022-08-01T00:27:11;7.17;;;3.04;;
61473;SDS011;53694;49.784;30.150;2022-08-01T00:28:13;6.43;;;2.66;;
61473;SDS011;53694;49.784;30.150;2022-08-01T00:29:15;8.06;;;3.06;;
61473;SDS011;53694;49.784;30.150;2022-08-01T00:30:17;6.93;;;2.97;;
61473;SDS011;53694;49.784;30.150;2022-08-01T00:31:19;9.36;;;3.32;;
61473;SDS011;53694;49.784;30.150;2022-08-01T00:32:20;7.14;;;2.82;;
61473;SDS011;53694;49.784;30.150;2022-08-01T00:33:22;5.54;;;3.03;;
61473;SDS011;53694;49.784;30.150;2022-08-01T00:34:24;4.44;;;2.60;;
61473;SDS011;53694;49.784;30.150;2022-08-01T00:35:25;4.65;;;2.67;;
61473;SDS011;53694;49.784;30.150;2022-08-01T00:36:27;8.02;;;2.91;;
61473;SDS011;53694;49.784;30.150;2022-08-01T00:37:29;6.23;;;2.97;;
61473;SDS011;53694;49.784;30.150;2022-08-01T00:38:30;5.64;;;3.27;;
61473;SDS011;53694;49.784;30.150;2022-08-01T00:39:32;7.97;;;2.90;;
61473;SDS011;53694;49.784;30.150;2022-08-01T00:40:34;6.51;;;2.93;;
61473;SDS011;53694;49.784;30.150;2022-08-01T00:41:35;5.61;;;2.86;;
61473;SDS011;53694;49.784;30.150;2022-08-01T00:42:37;6.01;;;2.85;;
61473;SDS011;53694;49.784;30.150;2022-08-01T00:43:39;5.44;;;2.31;;
61473;SDS011;53694;49.784;30.150;2022-08-01T00:44:40;10.12;;;2.84;;
61473;SDS011;53694;49.784;30.150;2022-08-01T00:45:42;5.09;;;2.79;;
61473;SDS011;53694;49.784;30.150;2022-08-01T00:46:44;8.01;;;2.83;;
61473;SDS011;53694;49.784;30.150;2022-08-01T00:47:45;6.53;;;2.91;;
61473;SDS011;53694;49.784;30.150;2022-08-01T00:48:47;7.74;;;3.04;;
61473;SDS011;53694;49.784;30.150;2022-08-01T00:49:49;4.05;;;2.65;;
61473;SDS011;53694;49.784;30.150;2022-08-01T00:50:51;7.95;;;3.01;;
61473;SDS011;53694;49.784;30.150;2022-08-01T00:51:52;6.85;;;2.72;;
61473;SDS011;53694;49.784;30.150;2022-08-01T00:52:54;6.33;;;2.95;;
61473;SDS011;53694;49.784;30.150;2022-08-01T00:53:56;8.07;;;3.19;;
61473;SDS011;53694;49.784;30.150;2022-08-01T00:54:58;6.71;;;2.93;;
61473;SDS011;53694;49.784;30.150;2022-08-01T00:56:00;10.67;;;3.49;;
61473;SDS011;53694;49.784;30.150;2022-08-01T00:57:03;8.18;;;3.84;;
61473;SDS011;53694;49.784;30.150;2022-08-01T00:58:04;6.06;;;3.09;;
61473;SDS011;53694;49.784;30.150;2022-08-01T00:59:07;5.21;;;2.89;;
61473;SDS011;53694;49.784;30.150;2022-08-01T01:00:10;7.60;;;3.01;;
61473;SDS011;53694;49.784;30.150;2022-08-01T01:01:14;7.47;;;2.93;;
61473;SDS011;53694;49.784;30.150;2022-08-01T01:02:16;6.67;;;2.73;;
61473;SDS011;53694;49.784;30.150;2022-08-01T01:03:18;5.29;;;2.69;;
61473;SDS011;53694;49.784;30.150;2022-08-01T01:04:20;6.15;;;2.80;;
61473;SDS011;53694;49.784;30.150;2022-08-01T01:05:21;4.41;;;2.67;;
61473;SDS011;53694;49.784;30.150;2022-08-01T01:06:28;6.61;;;3.28;;
61473;SDS011;53694;49.784;30.150;2022-08-01T01:07:48;5.71;;;3.44;;
61473;SDS011;53694;49.784;30.150;2022-08-01T01:10:09;9.24;;;3.08;;
61473;SDS011;53694;49.784;30.150;2022-08-01T01:11:22;4.68;;;2.73;;
61473;SDS011;53694;49.784;30.150;2022-08-01T01:12:42;7.05;;;2.97;;
61473;SDS011;53694;49.784;30.150;2022-08-01T01:13:51;7.28;;;2.89;;
61473;SDS011;53694;49.784;30.150;2022-08-01T01:16:20;9.01;;;3.06;;
61473;SDS011;53694;49.784;30.150;2022-08-01T01:17:31;5.65;;;3.14;;
61473;SDS011;53694;49.784;30.150;2022-08-01T01:19:05;5.31;;;2.84;;
61473;SDS011;53694;49.784;30.150;2022-08-01T01:19:50;8.50;;;2.88;;
61473;SDS011;53694;49.784;30.150;2022-08-01T01:27:29;7.28;;;3.20;;
61473;SDS011;53694;49.784;30.150;2022-08-01T01:30:08;5.83;;;3.14;;
61473;SDS011;53694;49.784;30.150;2022-08-01T01:31:10;7.82;;;3.08;;
61473;SDS011;53694;49.784;30.150;2022-08-01T01:33:46;6.59;;;2.83;;
61473;SDS011;53694;49.784;30.150;2022-08-01T01:34:50;8.66;;;3.27;;
61473;SDS011;53694;49.784;30.150;2022-08-01T01:35:57;6.29;;;2.73;;
61473;SDS011;53694;49.784;30.150;2022-08-01T01:37:02;8.99;;;3.13;;
61473;SDS011;53694;49.784;30.150;2022-08-01T01:38:08;6.23;;;3.06;;
61473;SDS011;53694;49.784;30.150;2022-08-01T01:39:18;5.48;;;3.12;;
61473;SDS011;53694;49.784;30.150;2022-08-01T01:40:23;6.04;;;3.01;;
61473;SDS011;53694;49.784;30.150;2022-08-01T01:41:26;5.35;;;2.97;;
61473;SDS011;53694;49.784;30.150;2022-08-01T01:42:29;5.90;;;3.57;;
61473;SDS011;53694;49.784;30.150;2022-08-01T01:43:33;8.66;;;3.38;;
61473;SDS011;53694;49.784;30.150;2022-08-01T01:44:37;7.31;;;3.07;;
61473;SDS011;53694;49.784;30.150;2022-08-01T01:45:40;12.14;;;4.01;;
61473;SDS011;53694;49.784;30.150;2022-08-01T01:46:43;8.13;;;3.83;;
61473;SDS011;53694;49.784;30.150;2022-08-01T01:47:46;8.77;;;3.70;;
61473;SDS011;53694;49.784;30.150;2022-08-01T01:48:48;7.79;;;3.44;;
61473;SDS011;53694;49.784;30.150;2022-08-01T01:49:51;8.43;;;3.26;;
61473;SDS011;53694;49.784;30.150;2022-08-01T01:50:55;13.17;;;3.74;;
61473;SDS011;53694;49.784;30.150;2022-08-01T01:51:58;7.83;;;3.27;;
61473;SDS011;53694;49.784;30.150;2022-08-01T01:53:02;6.90;;;3.29;;
61473;SDS011;53694;49.784;30.150;2022-08-01T01:54:06;7.03;;;3.27;;
61473;SDS011;53694;49.784;30.150;2022-08-01T01:55:10;6.95;;;3.28;;
61473;SDS011;53694;49.784;30.150;2022-08-01T01:56:16;9.39;;;3.37;;
61473;SDS011;53694;49.784;30.150;2022-08-01T01:57:20;7.51;;;3.35;;
61473;SDS011;53694;49.784;30.150;2022-08-01T01:58:23;6.97;;;3.25;;
61473;SDS011;53694;49.784;30.150;2022-08-01T01:59:28;9.62;;;3.64;;
61473;SDS011;53694;49.784;30.150;2022-08-01T02:00:33;7.92;;;3.46;;
61473;SDS011;53694;49.784;30.150;2022-08-01T02:01:35;8.25;;;3.26;;
61473;SDS011;53694;49.784;30.150;2022-08-01T02:02:37;8.02;;;3.19;;
61473;SDS011;53694;49.784;30.150;2022-08-01T02:03:40;7.07;;;3.61;;
61473;SDS011;53694;49.784;30.150;2022-08-01T02:04:45;6.51;;;3.24;;
61473;SDS011;53694;49.784;30.150;2022-08-01T02:05:49;8.11;;;3.32;;
61473;SDS011;53694;49.784;30.150;2022-08-01T02:06:54;6.59;;;3.32;;
61473;SDS011;53694;49.784;30.150;2022-08-01T02:07:57;7.21;;;3.74;;
61473;SDS011;53694;49.784;30.150;2022-08-01T02:08:59;10.26;;;3.25;;
61473;SDS011;53694;49.784;30.150;2022-08-01T02:10:03;8.21;;;3.71;;
61473;SDS011;53694;49.784;30.150;2022-08-01T02:11:06;5.68;;;3.19;;
61473;SDS011;53694;49.784;30.150;2022-08-01T02:12:10;6.16;;;3.53;;
61473;SDS011;53694;49.784;30.150;2022-08-01T02:13:13;8.23;;;3.57;;
61473;SDS011;53694;49.784;30.150;2022-08-01T02:14:18;8.75;;;3.95;;
61473;SDS011;53694;49.784;30.150;2022-08-01T02:15:21;8.46;;;3.63;;
61473;SDS011;53694;49.784;30.150;2022-08-01T02:16:34;8.72;;;4.08;;
61473;SDS011;53694;49.784;30.150;2022-08-01T02:17:37;12.17;;;4.71;;
61473;SDS011;53694;49.784;30.150;2022-08-01T02:18:42;9.83;;;3.98;;
61473;SDS011;53694;49.784;30.150;2022-08-01T02:19:44;9.93;;;4.07;;
61473;SDS011;53694;49.784;30.150;2022-08-01T02:20:46;9.31;;;4.81;;
61473;SDS011;53694;49.784;30.150;2022-08-01T02:21:51;7.82;;;4.03;;
61473;SDS011;53694;49.784;30.150;2022-08-01T02:22:56;10.68;;;3.76;;
61473;SDS011;53694;49.784;30.150;2022-08-01T02:24:03;8.83;;;3.72;;
61473;SDS011;53694;49.784;30.150;2022-08-01T02:25:10;11.16;;;4.61;;
61473;SDS011;53694;49.784;30.150;2022-08-01T02:26:15;8.67;;;3.92;;
61473;SDS011;53694;49.784;30.150;2022-08-01T02:27:24;9.19;;;4.07;;
61473;SDS011;53694;49.784;30.150;2022-08-01T02:28:25;9.54;;;4.51;;
61473;SDS011;53694;49.784;30.150;2022-08-01T02:29:46;9.32;;;4.11;;
61473;SDS011;53694;49.784;30.150;2022-08-01T02:30:50;7.74;;;4.28;;
61473;SDS011;53694;49.784;30.150;2022-08-01T02:31:53;8.92;;;4.26;;
61473;SDS011;53694;49.784;30.150;2022-08-01T02:32:59;9.62;;;4.23;;
61473;SDS011;53694;49.784;30.150;2022-08-01T02:34:04;8.59;;;4.42;;
61473;SDS011;53694;49.784;30.150;2022-08-01T02:35:09;9.31;;;4.09;;
61473;SDS011;53694;49.784;30.150;2022-08-01T02:36:15;11.86;;;4.74;;
61473;SDS011;53694;49.784;30.150;2022-08-01T02:37:19;13.47;;;5.49;;
61473;SDS011;53694;49.784;30.150;2022-08-01T02:38:23;10.03;;;4.29;;
61473;SDS011;53694;49.784;30.150;2022-08-01T02:39:27;13.66;;;4.67;;
61473;SDS011;53694;49.784;30.150;2022-08-01T02:40:33;7.44;;;4.09;;
61473;SDS011;53694;49.784;30.150;2022-08-01T02:41:38;12.82;;;3.96;;
61473;SDS011;53694;49.784;30.150;2022-08-01T02:42:43;10.03;;;3.72;;
61473;SDS011;53694;49.784;30.150;2022-08-01T02:43:47;8.26;;;4.40;;
61473;SDS011;53694;49.784;30.150;2022-08-01T02:44:50;11.46;;;4.13;;
61473;SDS011;53694;49.784;30.150;2022-08-01T02:45:56;9.01;;;4.27;;
61473;SDS011;53694;49.784;30.150;2022-08-01T02:47:00;11.27;;;4.59;;
61473;SDS011;53694;49.784;30.150;2022-08-01T02:48:10;13.32;;;4.72;;
61473;SDS011;53694;49.784;30.150;2022-08-01T02:49:16;11.48;;;4.52;;
61473;SDS011;53694;49.784;30.150;2022-08-01T02:50:21;11.27;;;4.72;;
61473;SDS011;53694;49.784;30.150;2022-08-01T02:51:27;7.98;;;4.31;;
61473;SDS011;53694;49.784;30.150;2022-08-01T02:52:31;9.76;;;4.73;;
61473;SDS011;53694;49.784;30.150;2022-08-01T02:53:34;10.94;;;4.80;;
61473;SDS011;53694;49.784;30.150;2022-08-01T02:54:39;11.67;;;4.96;;
61473;SDS011;53694;49.784;30.150;2022-08-01T02:55:42;11.84;;;5.42;;
61473;SDS011;53694;49.784;30.150;2022-08-01T02:56:46;11.36;;;4.59;;
61473;SDS011;53694;49.784;30.150;2022-08-01T02:57:49;9.39;;;4.87;;
61473;SDS011;53694;49.784;30.150;2022-08-01T02:58:53;9.20;;;5.21;;
61473;SDS011;53694;49.784;30.150;2022-08-01T02:59:55;12.03;;;5.63;;
61473;SDS011;53694;49.784;30.150;2022-08-01T03:01:00;13.98;;;4.88;;
61473;SDS011;53694;49.784;30.150;2022-08-01T03:02:03;9.65;;;3.84;;
61473;SDS011;53694;49.784;30.150;2022-08-01T03:03:06;10.76;;;4.02;;
61473;SDS011;53694;49.784;30.150;2022-08-01T03:04:09;9.55;;;3.88;;
61473;SDS011;53694;49.784;30.150;2022-08-01T03:05:12;11.76;;;4.38;;
61473;SDS011;53694;49.784;30.150;2022-08-01T03:06:16;9.14;;;3.86;;
61473;SDS011;53694;49.784;30.150;2022-08-01T03:07:18;11.17;;;4.25;;
61473;SDS011;53694;49.784;30.150;2022-08-01T03:08:22;9.84;;;4.23;;
61473;SDS011;53694;49.784;30.150;2022-08-01T03:09:25;9.76;;;4.46;;
61473;SDS011;53694;49.784;30.150;2022-08-01T03:10:30;9.53;;;4.16;;
61473;SDS011;53694;49.784;30.150;2022-08-01T03:11:34;11.32;;;5.26;;
61473;SDS011;53694;49.784;30.150;2022-08-01T03:12:38;13.29;;;5.00;;
61473;SDS011;53694;49.784;30.150;2022-08-01T03:13:41;15.49;;;4.69;;
61473;SDS011;53694;49.784;30.150;2022-08-01T03:14:46;15.79;;;4.92;;
61473;SDS011;53694;49.784;30.150;2022-08-01T03:15:50;20.81;;;5.24;;
61473;SDS011;53694;49.784;30.150;2022-08-01T03:16:55;20.27;;;5.42;;
61473;SDS011;53694;49.784;30.150;2022-08-01T03:17:59;19.09;;;5.07;;
61473;SDS011;53694;49.784;30.150;2022-08-01T03:19:02;19.93;;;5.16;;
61473;SDS011;53694;49.784;30.150;2022-08-01T03:20:06;17.35;;;4.92;;
61473;SDS011;53694;49.784;30.150;2022-08-01T03:21:11;12.89;;;5.08;;
61473;SDS011;53694;49.784;30.150;2022-08-01T03:22:14;15.06;;;5.12;;
61473;SDS011;53694;49.784;30.150;2022-08-01T03:23:17;13.96;;;5.46;;
61473;SDS011;53694;49.784;30.150;2022-08-01T03:24:21;14.36;;;4.97;;
61473;SDS011;53694;49.784;30.150;2022-08-01T03:25:26;9.93;;;5.29;;
61473;SDS011;53694;49.784;30.150;2022-08-01T03:26:32;9.95;;;5.17;;
61473;SDS011;53694;49.784;30.150;2022-08-01T03:27:36;14.29;;;4.86;;
61473;SDS011;53694;49.784;30.150;2022-08-01T03:28:38;14.43;;;4.87;;
61473;SDS011;53694;49.784;30.150;2022-08-01T03:29:41;11.61;;;6.16;;
61473;SDS011;53694;49.784;30.150;2022-08-01T03:30:45;11.02;;;5.28;;
61473;SDS011;53694;49.784;30.150;2022-08-01T03:31:48;10.36;;;5.30;;
61473;SDS011;53694;49.784;30.150;2022-08-01T03:32:51;14.21;;;5.09;;
61473;SDS011;53694;49.784;30.150;2022-08-01T03:33:52;12.86;;;5.29;;
61473;SDS011;53694;49.784;30.150;2022-08-01T03:34:54;11.43;;;6.05;;
61473;SDS011;53694;49.784;30.150;2022-08-01T03:35:56;10.16;;;5.15;;
61473;SDS011;53694;49.784;30.150;2022-08-01T03:37:36;12.45;;;5.61;;
61473;SDS011;53694;49.784;30.150;2022-08-01T03:38:17;15.53;;;5.37;;
61473;SDS011;53694;49.784;30.150;2022-08-01T03:39:20;12.87;;;5.32;;
61473;SDS011;53694;49.784;30.150;2022-08-01T03:40:39;9.21;;;5.20;;
61473;SDS011;53694;49.784;30.150;2022-08-01T03:41:43;11.61;;;5.51;;
61473;SDS011;53694;49.784;30.150;2022-08-01T03:42:50;10.52;;;5.51;;
61473;SDS011;53694;49.784;30.150;2022-08-01T03:43:58;10.68;;;5.53;;
61473;SDS011;53694;49.784;30.150;2022-08-01T03:45:06;11.18;;;5.88;;
61473;SDS011;53694;49.784;30.150;2022-08-01T03:46:15;10.92;;;5.22;;
61473;SDS011;53694;49.784;30.150;2022-08-01T03:47:17;9.92;;;5.61;;
61473;SDS011;53694;49.784;30.150;2022-08-01T03:48:21;9.27;;;5.63;;
61473;SDS011;53694;49.784;30.150;2022-08-01T03:49:25;13.51;;;5.92;;
61473;SDS011;53694;49.784;30.150;2022-08-01T03:50:31;13.47;;;5.83;;
61473;SDS011;53694;49.784;30.150;2022-08-01T03:51:35;13.63;;;5.58;;
61473;SDS011;53694;49.784;30.150;2022-08-01T03:52:39;10.59;;;5.75;;
61473;SDS011;53694;49.784;30.150;2022-08-01T03:53:44;10.93;;;6.90;;
61473;SDS011;53694;49.784;30.150;2022-08-01T03:54:49;12.01;;;5.58;;
61473;SDS011;53694;49.784;30.150;2022-08-01T03:55:53;11.63;;;5.78;;
61473;SDS011;53694;49.784;30.150;2022-08-01T03:56:57;13.73;;;6.15;;
61473;SDS011;53694;49.784;30.150;2022-08-01T03:57:59;12.02;;;6.18;;
61473;SDS011;53694;49.784;30.150;2022-08-01T03:59:03;14.44;;;8.00;;
61473;SDS011;53694;49.784;30.150;2022-08-01T04:00:06;17.08;;;8.21;;
61473;SDS011;53694;49.784;30.150;2022-08-01T04:01:09;17.51;;;8.07;;
61473;SDS011;53694;49.784;30.150;2022-08-01T04:02:12;14.48;;;7.38;;
61473;SDS011;53694;49.784;30.150;2022-08-01T04:03:15;15.43;;;7.61;;
61473;SDS011;53694;49.784;30.150;2022-08-01T04:04:17;15.79;;;7.54;;
61473;SDS011;53694;49.784;30.150;2022-08-01T04:05:19;16.89;;;7.51;;
61473;SDS011;53694;49.784;30.150;2022-08-01T04:06:23;11.80;;;7.43;;
61473;SDS011;53694;49.784;30.150;2022-08-01T04:07:29;15.50;;;7.37;;
61473;SDS011;53694;49.784;30.150;2022-08-01T04:08:36;13.84;;;7.61;;
61473;SDS011;53694;49.784;30.150;2022-08-01T04:09:39;14.67;;;7.31;;
61473;SDS011;53694;49.784;30.150;2022-08-01T04:10:40;18.04;;;7.93;;
61473;SDS011;53694;49.784;30.150;2022-08-01T04:11:42;13.49;;;7.12;;
61473;SDS011;53694;49.784;30.150;2022-08-01T04:12:44;20.19;;;8.39;;
61473;SDS011;53694;49.784;30.150;2022-08-01T04:13:46;17.75;;;7.51;;
61473;SDS011;53694;49.784;30.150;2022-08-01T04:14:47;17.89;;;7.26;;
61473;SDS011;53694;49.784;30.150;2022-08-01T04:15:50;12.96;;;7.20;;
61473;SDS011;53694;49.784;30.150;2022-08-01T04:16:51;16.20;;;7.37;;
61473;SDS011;53694;49.784;30.150;2022-08-01T04:17:53;11.89;;;7.06;;
61473;SDS011;53694;49.784;30.150;2022-08-01T04:18:55;13.18;;;6.74;;
61473;SDS011;53694;49.784;30.150;2022-08-01T04:19:57;14.35;;;6.81;;
61473;SDS011;53694;49.784;30.150;2022-08-01T04:20:59;12.37;;;6.87;;
61473;SDS011;53694;49.784;30.150;2022-08-01T04:22:00;12.69;;;6.91;;
61473;SDS011;53694;49.784;30.150;2022-08-01T04:23:03;11.79;;;6.12;;
61473;SDS011;53694;49.784;30.150;2022-08-01T04:24:07;12.71;;;6.38;;
61473;SDS011;53694;49.784;30.150;2022-08-01T04:25:19;12.84;;;6.66;;
61473;SDS011;53694;49.784;30.150;2022-08-01T04:26:19;10.87;;;6.34;;
61473;SDS011;53694;49.784;30.150;2022-08-01T04:27:23;15.31;;;7.25;;
61473;SDS011;53694;49.784;30.150;2022-08-01T04:28:34;16.33;;;8.07;;
61473;SDS011;53694;49.784;30.150;2022-08-01T04:29:38;14.84;;;7.53;;
61473;SDS011;53694;49.784;30.150;2022-08-01T04:30:42;17.08;;;8.09;;
61473;SDS011;53694;49.784;30.150;2022-08-01T04:31:47;19.64;;;8.17;;
61473;SDS011;53694;49.784;30.150;2022-08-01T04:32:50;13.59;;;7.93;;
61473;SDS011;53694;49.784;30.150;2022-08-01T04:33:54;18.75;;;9.19;;
61473;SDS011;53694;49.784;30.150;2022-08-01T04:34:57;17.10;;;8.11;;
61473;SDS011;53694;49.784;30.150;2022-08-01T04:36:00;16.14;;;7.85;;
61473;SDS011;53694;49.784;30.150;2022-08-01T04:37:03;16.71;;;8.12;;
61473;SDS011;53694;49.784;30.150;2022-08-01T04:38:05;14.59;;;7.59;;
61473;SDS011;53694;49.784;30.150;2022-08-01T04:39:09;13.44;;;7.50;;
61473;SDS011;53694;49.784;30.150;2022-08-01T04:40:13;18.31;;;6.30;;
61473;SDS011;53694;49.784;30.150;2022-08-01T04:41:15;13.30;;;7.00;;
61473;SDS011;53694;49.784;30.150;2022-08-01T04:42:19;15.69;;;7.53;;
61473;SDS011;53694;49.784;30.150;2022-08-01T04:43:21;13.67;;;6.76;;
61473;SDS011;53694;49.784;30.150;2022-08-01T04:44:23;17.72;;;6.94;;
61473;SDS011;53694;49.784;30.150;2022-08-01T04:45:26;12.27;;;5.77;;
61473;SDS011;53694;49.784;30.150;2022-08-01T04:46:30;11.11;;;5.96;;
61473;SDS011;53694;49.784;30.150;2022-08-01T04:47:34;12.85;;;5.25;;
61473;SDS011;53694;49.784;30.150;2022-08-01T04:48:38;11.44;;;5.12;;
61473;SDS011;53694;49.784;30.150;2022-08-01T04:49:41;12.51;;;4.96;;
61473;SDS011;53694;49.784;30.150;2022-08-01T04:50:44;14.12;;;6.34;;
61473;SDS011;53694;49.784;30.150;2022-08-01T04:51:49;8.97;;;5.60;;
61473;SDS011;53694;49.784;30.150;2022-08-01T04:52:52;10.68;;;5.17;;
61473;SDS011;53694;49.784;30.150;2022-08-01T04:53:54;10.50;;;4.61;;
61473;SDS011;53694;49.784;30.150;2022-08-01T04:54:55;9.19;;;5.04;;
61473;SDS011;53694;49.784;30.150;2022-08-01T04:55:57;9.66;;;4.44;;
61473;SDS011;53694;49.784;30.150;2022-08-01T04:56:59;11.35;;;4.43;;
61473;SDS011;53694;49.784;30.150;2022-08-01T04:58:01;9.23;;;4.08;;
61473;SDS011;53694;49.784;30.150;2022-08-01T04:59:04;8.66;;;4.23;;
61473;SDS011;53694;49.784;30.150;2022-08-01T05:00:06;7.71;;;4.49;;
61473;SDS011;53694;49.784;30.150;2022-08-01T05:01:08;15.51;;;4.41;;
61473;SDS011;53694;49.784;30.150;2022-08-01T05:02:12;10.94;;;3.95;;
61473;SDS011;53694;49.784;30.150;2022-08-01T05:03:17;9.73;;;3.96;;
61473;SDS011;53694;49.784;30.150;2022-08-01T05:04:19;14.75;;;4.35;;
61473;SDS011;53694;49.784;30.150;2022-08-01T05:05:21;7.93;;;3.69;;
61473;SDS011;53694;49.784;30.150;2022-08-01T05:06:24;8.98;;;3.96;;
61473;SDS011;53694;49.784;30.150;2022-08-01T05:07:25;6.56;;;3.20;;
61473;SDS011;53694;49.784;30.150;2022-08-01T05:08:27;8.29;;;3.80;;
61473;SDS011;53694;49.784;30.150;2022-08-01T05:09:29;7.52;;;3.43;;
61473;SDS011;53694;49.784;30.150;2022-08-01T05:10:32;10.72;;;3.11;;
61473;SDS011;53694;49.784;30.150;2022-08-01T05:11:34;15.42;;;4.07;;
61473;SDS011;53694;49.784;30.150;2022-08-01T05:12:35;9.75;;;3.26;;
61473;SDS011;53694;49.784;30.150;2022-08-01T05:13:37;8.49;;;3.59;;
61473;SDS011;53694;49.784;30.150;2022-08-01T05:14:39;9.84;;;3.66;;
61473;SDS011;53694;49.784;30.150;2022-08-01T05:15:41;9.29;;;2.74;;
61473;SDS011;53694;49.784;30.150;2022-08-01T05:16:42;8.56;;;4.00;;
61473;SDS011;53694;49.784;30.150;2022-08-01T05:17:45;8.76;;;3.19;;
61473;SDS011;53694;49.784;30.150;2022-08-01T05:18:47;6.56;;;3.19;;
61473;SDS011;53694;49.784;30.150;2022-08-01T05:19:49;6.76;;;3.08;;
61473;SDS011;53694;49.784;30.150;2022-08-01T05:20:50;7.63;;;2.92;;
61473;SDS011;53694;49.784;30.150;2022-08-01T05:21:52;13.13;;;3.11;;
61473;SDS011;53694;49.784;30.150;2022-08-01T05:22:54;13.08;;;3.02;;
61473;SDS011;53694;49.784;30.150;2022-08-01T05:23:56;9.63;;;3.09;;
61473;SDS011;53694;49.784;30.150;2022-08-01T05:24:57;10.14;;;3.13;;
61473;SDS011;53694;49.784;30.150;2022-08-01T05:25:59;9.13;;;3.39;;
61473;SDS011;53694;49.784;30.150;2022-08-01T05:27:01;13.27;;;3.85;;
61473;SDS011;53694;49.784;30.150;2022-08-01T05:28:03;6.85;;;3.34;;
61473;SDS011;53694;49.784;30.150;2022-08-01T05:29:05;7.75;;;3.05;;
61473;SDS011;53694;49.784;30.150;2022-08-01T05:30:07;7.73;;;3.76;;
61473;SDS011;53694;49.784;30.150;2022-08-01T05:31:10;7.39;;;3.52;;
61473;SDS011;53694;49.784;30.150;2022-08-01T05:32:12;6.44;;;3.38;;
61473;SDS011;53694;49.784;30.150;2022-08-01T05:33:13;10.09;;;2.87;;
61473;SDS011;53694;49.784;30.150;2022-08-01T05:34:15;7.06;;;2.97;;
61473;SDS011;53694;49.784;30.150;2022-08-01T05:35:17;8.67;;;2.95;;
61473;SDS011;53694;49.784;30.150;2022-08-01T05:36:20;7.67;;;2.73;;
61473;SDS011;53694;49.784;30.150;2022-08-01T05:37:22;6.41;;;2.86;;
61473;SDS011;53694;49.784;30.150;2022-08-01T05:38:24;7.52;;;2.62;;
61473;SDS011;53694;49.784;30.150;2022-08-01T05:39:25;10.24;;;3.01;;
61473;SDS011;53694;49.784;30.150;2022-08-01T05:40:28;5.16;;;2.61;;
61473;SDS011;53694;49.784;30.150;2022-08-01T05:41:30;9.23;;;5.27;;
61473;SDS011;53694;49.784;30.150;2022-08-01T05:42:31;5.35;;;2.58;;
61473;SDS011;53694;49.784;30.150;2022-08-01T05:43:33;12.58;;;3.25;;
61473;SDS011;53694;49.784;30.150;2022-08-01T05:44:35;14.79;;;3.69;;
61473;SDS011;53694;49.784;30.150;2022-08-01T05:45:37;7.16;;;2.73;;
61473;SDS011;53694;49.784;30.150;2022-08-01T05:46:40;6.55;;;2.75;;
61473;SDS011;53694;49.784;30.150;2022-08-01T05:47:42;7.88;;;2.98;;
61473;SDS011;53694;49.784;30.150;2022-08-01T05:48:43;8.59;;;2.93;;
61473;SDS011;53694;49.784;30.150;2022-08-01T05:49:45;10.14;;;2.87;;
61473;SDS011;53694;49.784;30.150;2022-08-01T05:50:47;9.19;;;2.93;;
61473;SDS011;53694;49.784;30.150;2022-08-01T05:51:49;5.06;;;2.55;;
61473;SDS011;53694;49.784;30.150;2022-08-01T05:52:51;11.14;;;2.59;;
61473;SDS011;53694;49.784;30.150;2022-08-01T05:53:53;4.39;;;2.40;;
61473;SDS011;53694;49.784;30.150;2022-08-01T05:54:54;6.12;;;2.41;;
61473;SDS011;53694;49.784;30.150;2022-08-01T05:55:56;4.65;;;2.58;;
61473;SDS011;53694;49.784;30.150;2022-08-01T05:56:58;7.49;;;3.17;;
61473;SDS011;53694;49.784;30.150;2022-08-01T05:57:59;6.01;;;2.54;;
61473;SDS011;53694;49.784;30.150;2022-08-01T05:59:02;6.72;;;2.62;;
61473;SDS011;53694;49.784;30.150;2022-08-01T06:00:05;7.31;;;2.51;;
61473;SDS011;53694;49.784;30.150;2022-08-01T06:01:08;7.06;;;2.31;;
61473;SDS011;53694;49.784;30.150;2022-08-01T06:02:09;7.24;;;2.71;;
61473;SDS011;53694;49.784;30.150;2022-08-01T06:03:11;4.54;;;2.33;;
61473;SDS011;53694;49.784;30.150;2022-08-01T06:04:13;7.66;;;2.64;;
61473;SDS011;53694;49.784;30.150;2022-08-01T06:05:15;5.38;;;2.74;;
61473;SDS011;53694;49.784;30.150;2022-08-01T06:06:17;7.48;;;2.72;;
61473;SDS011;53694;49.784;30.150;2022-08-01T06:07:19;4.99;;;2.43;;
61473;SDS011;53694;49.784;30.150;2022-08-01T06:08:21;12.19;;;3.66;;
61473;SDS011;53694;49.784;30.150;2022-08-01T06:09:22;9.21;;;3.54;;
61473;SDS011;53694;49.784;30.150;2022-08-01T06:10:26;5.03;;;2.92;;
61473;SDS011;53694;49.784;30.150;2022-08-01T06:11:27;7.91;;;2.80;;
61473;SDS011;53694;49.784;30.150;2022-08-01T06:12:32;6.63;;;2.87;;
61473;SDS011;53694;49.784;30.150;2022-08-01T06:13:36;7.31;;;2.87;;
61473;SDS011;53694;49.784;30.150;2022-08-01T06:14:37;5.51;;;2.63;;
61473;SDS011;53694;49.784;30.150;2022-08-01T06:15:39;9.86;;;2.70;;
61473;SDS011;53694;49.784;30.150;2022-08-01T06:16:41;6.22;;;2.54;;
61473;SDS011;53694;49.784;30.150;2022-08-01T06:17:43;5.56;;;2.68;;
61473;SDS011;53694;49.784;30.150;2022-08-01T06:18:44;5.14;;;2.40;;
61473;SDS011;53694;49.784;30.150;2022-08-01T06:19:46;9.26;;;2.92;;
61473;SDS011;53694;49.784;30.150;2022-08-01T06:20:48;10.44;;;3.03;;
61473;SDS011;53694;49.784;30.150;2022-08-01T06:21:50;10.06;;;2.93;;
61473;SDS011;53694;49.784;30.150;2022-08-01T06:22:52;9.67;;;2.99;;
61473;SDS011;53694;49.784;30.150;2022-08-01T06:23:53;5.41;;;2.73;;
61473;SDS011;53694;49.784;30.150;2022-08-01T06:24:55;6.26;;;2.86;;
61473;SDS011;53694;49.784;30.150;2022-08-01T06:25:57;10.71;;;2.83;;